Time;durP1;ratioP1;P1;durP2;ratioP2;P2;SDS_P1;SDS_P2;PMS_P1;PMS_P2;Temp;Humidity;BMP_temperature;BMP_pressure;BME280_temperature;BME280_humidity;BME280_pressure;Samples;Min_cycle;Max_cycle;Signal;HPM_P1;HPM_P2
2023/09/20 00:02:03;;;;;;;2.30;0.50;;;;;;;16.52;100.00;97801.06;1127080;75;10097116;-82
2023/09/20 00:04:49;;;;;;;0.68;0.60;;;;;;;16.54;100.00;97795.78;1173248;75;10770102;-74
2023/09/20 00:07:24;;;;;;;0.50;0.50;;;;;;;16.47;100.00;97798.34;1152639;75;8980479;-79
2023/09/20 00:09:57;;;;;;;0.80;0.60;;;;;;;16.15;100.00;97799.53;1223077;67;3072828;-80
2023/09/20 00:12:29;;;;;;;0.60;0.60;;;;;;;16.30;100.00;97804.72;1200032;75;4926779;-81
2023/09/20 00:15:02;;;;;;;0.65;0.50;;;;;;;16.21;100.00;97796.00;1212775;75;3935035;-77
2023/09/20 00:17:36;;;;;;;0.80;0.70;;;;;;;16.30;100.00;97790.91;1226319;75;2922038;-80
2023/09/20 00:20:16;;;;;;;0.80;0.60;;;;;;;16.22;100.00;97794.75;1220523;83;3063996;-79
2023/09/20 00:22:50;;;;;;;0.80;0.40;;;;;;;16.30;100.00;97795.69;1226492;75;2926294;-77
2023/09/20 00:25:23;;;;;;;1.05;0.75;;;;;;;16.08;100.00;97791.78;1224968;75;2936721;-79
2023/09/20 00:27:56;;;;;;;0.65;0.60;;;;;;;16.11;100.00;97790.00;1183972;75;4961851;-79
2023/09/20 00:30:28;;;;;;;0.75;0.65;;;;;;;16.00;100.00;97793.59;1155542;75;8677111;-78
2023/09/20 00:33:01;;;;;;;1.30;0.70;;;;;;;16.02;100.00;97788.31;1219941;75;3040572;-78
2023/09/20 00:35:40;;;;;;;1.05;0.70;;;;;;;16.08;100.00;97782.75;1139785;75;9975168;-78
2023/09/20 00:38:16;;;;;;;0.75;0.60;;;;;;;16.12;100.00;97784.00;1223784;75;2961913;-79
2023/09/20 00:40:49;;;;;;;1.30;0.65;;;;;;;16.06;100.00;97788.78;1211302;75;3836781;-78
2023/09/20 00:43:27;;;;;;;1.20;0.50;;;;;;;15.84;100.00;97795.16;1210941;75;3946276;-78
2023/09/20 00:46:01;;;;;;;0.90;0.80;;;;;;;15.68;100.00;97793.19;1223616;75;3022944;-78
2023/09/20 00:48:34;;;;;;;0.85;0.70;;;;;;;15.79;100.00;97795.19;1186071;75;5037686;-80
2023/09/20 00:51:11;;;;;;;0.60;0.60;;;;;;;15.66;100.00;97801.97;1210181;75;4093601;-80
2023/09/20 00:53:45;;;;;;;0.90;0.70;;;;;;;15.84;100.00;97802.69;1201006;75;4920630;-79
2023/09/20 00:56:18;;;;;;;0.50;0.50;;;;;;;15.84;100.00;97797.91;1223840;75;2997628;-77
2023/09/20 00:58:53;;;;;;;0.45;0.40;;;;;;;15.80;100.00;97802.94;1212336;75;3882985;-79
2023/09/20 01:01:27;;;;;;;1.20;0.90;;;;;;;15.57;100.00;97801.50;1221932;75;3113221;-79
2023/09/20 01:04:00;;;;;;;1.65;0.95;;;;;;;15.50;100.00;97800.03;1210223;75;4089586;-79
2023/09/20 01:06:36;;;;;;;1.55;0.90;;;;;;;15.21;100.00;97802.06;1223745;75;2919285;-78
2023/09/20 01:09:10;;;;;;;1.20;1.00;;;;;;;15.45;100.00;97803.53;1211685;75;4006053;-79
2023/09/20 01:11:45;;;;;;;2.10;0.80;;;;;;;15.41;100.00;97801.03;1129700;75;9838623;-80
2023/09/20 01:14:19;;;;;;;1.00;0.90;;;;;;;15.53;100.00;97799.75;1174334;75;5046828;-77
2023/09/20 01:16:53;;;;;;;0.85;0.70;;;;;;;15.36;100.00;97796.28;1226367;75;2928909;-77
2023/09/20 01:19:28;;;;;;;0.90;0.85;;;;;;;15.43;100.00;97795.03;1207215;75;4085085;-80
2023/09/20 01:22:04;;;;;;;1.65;1.10;;;;;;;15.00;100.00;97801.59;1226597;75;2924868;-79
2023/09/20 01:24:37;;;;;;;2.95;1.40;;;;;;;15.11;100.00;97798.84;1211960;75;3981835;-80
2023/09/20 01:27:10;;;;;;;2.45;1.90;;;;;;;14.85;100.00;97799.09;1185644;75;5022799;-79
2023/09/20 01:29:46;;;;;;;4.05;3.20;;;;;;;14.66;100.00;97798.81;1207805;75;4043777;-77
2023/09/20 01:32:20;;;;;;;3.75;2.90;;;;;;;14.72;100.00;97798.84;1220227;75;3075020;-78
2023/09/20 01:34:53;;;;;;;5.65;2.35;;;;;;;14.76;100.00;97799.34;1091656;75;11812435;-74
2023/09/20 01:37:28;;;;;;;2.50;2.15;;;;;;;14.60;100.00;97800.06;1192005;75;5557615;-81
2023/09/20 01:40:01;;;;;;;5.20;2.65;;;;;;;14.49;100.00;97807.06;1223434;75;2983693;-80
2023/09/20 01:42:38;;;;;;;3.45;2.55;;;;;;;14.46;100.00;97805.31;1199536;75;3940484;-78
2023/09/20 01:45:18;;;;;;;3.47;2.30;;;;;;;14.77;100.00;97802.84;1199003;75;4915976;-74
2023/09/20 01:47:53;;;;;;;3.60;2.20;;;;;;;14.63;100.00;97810.13;1184354;75;4919112;-79
2023/09/20 01:50:27;;;;;;;3.05;2.10;;;;;;;14.54;100.00;97808.34;1198208;75;4016880;-81
2023/09/20 01:53:06;;;;;;;2.50;1.80;;;;;;;14.66;100.00;97811.88;1221695;75;3012126;-78
2023/09/20 01:55:42;;;;;;;1.90;1.70;;;;;;;14.62;100.00;97814.88;1208684;67;4081495;-81
2023/09/20 01:58:15;;;;;;;1.35;1.05;;;;;;;14.83;100.00;97812.63;1212423;75;3877724;-79
2023/09/20 02:00:50;;;;;;;2.20;1.60;;;;;;;14.74;100.00;97818.38;1211791;75;3966927;-81
2023/09/20 02:03:27;;;;;;;1.20;1.00;;;;;;;14.99;100.00;97811.13;1221849;75;3047624;-79
2023/09/20 02:06:00;;;;;;;2.30;1.40;;;;;;;14.88;100.00;97816.63;1209410;75;3872172;-74
2023/09/20 02:08:36;;;;;;;1.45;1.00;;;;;;;15.04;100.00;97815.88;1222720;75;2968015;-80
2023/09/20 02:11:09;;;;;;;1.40;0.95;;;;;;;15.10;100.00;97813.09;1220576;75;3067034;-78
2023/09/20 02:13:51;;;;;;;2.05;1.08;;;;;;;15.08;100.00;97808.13;1171455;75;10685262;-73
2023/09/20 02:16:24;;;;;;;1.30;1.05;;;;;;;15.01;100.00;97818.88;1213436;75;3839963;-79
2023/09/20 02:18:56;;;;;;;0.95;0.80;;;;;;;15.10;100.00;97815.88;1224825;75;2927592;-77
2023/09/20 02:21:29;;;;;;;1.10;1.00;;;;;;;15.04;100.00;97815.13;1209275;75;4046489;-80
2023/09/20 02:24:07;;;;;;;1.15;0.90;;;;;;;14.97;100.00;97808.13;1053939;75;11832858;-75
2023/09/20 02:26:40;;;;;;;1.50;1.00;;;;;;;14.99;100.00;97811.13;1174313;75;7046841;-79
2023/09/20 02:29:13;;;;;;;1.40;1.20;;;;;;;14.81;100.00;97806.09;1187426;75;4828742;-77
2023/09/20 02:31:47;;;;;;;1.25;0.80;;;;;;;14.92;100.00;97811.63;1222286;75;3032693;-82
2023/09/20 02:34:20;;;;;;;1.10;0.90;;;;;;;14.95;100.00;97802.34;1216887;75;3108553;-79
2023/09/20 02:36:56;;;;;;;1.10;0.80;;;;;;;14.90;100.00;97795.56;1211542;75;3953036;-77
2023/09/20 02:39:32;;;;;;;1.05;0.90;;;;;;;14.82;100.00;97793.84;1225703;75;2926164;-77
2023/09/20 02:42:06;;;;;;;1.00;0.70;;;;;;;14.81;100.00;97797.84;1224169;75;2953602;-77
2023/09/20 02:44:38;;;;;;;0.95;0.90;;;;;;;14.74;100.00;97799.06;1212005;75;3834147;-77
2023/09/20 02:47:12;;;;;;;1.45;0.70;;;;;;;14.82;100.00;97791.84;1226532;75;2912979;-80
2023/09/20 02:49:44;;;;;;;0.95;0.80;;;;;;;14.71;100.00;97786.31;1224683;75;2933270;-77
2023/09/20 02:52:17;;;;;;;0.85;0.85;;;;;;;14.74;100.00;97795.56;1223658;75;2988323;-80
2023/09/20 02:54:53;;;;;;;0.75;0.70;;;;;;;14.74;100.00;97788.06;1223222;75;3049228;-80
2023/09/20 02:57:26;;;;;;;0.60;0.60;;;;;;;14.75;100.00;97786.06;1208050;75;4021312;-79
2023/09/20 02:59:58;;;;;;;1.40;0.80;;;;;;;14.69;100.00;97792.31;1211934;75;3976182;-80
2023/09/20 03:02:34;;;;;;;0.70;0.70;;;;;;;14.66;100.00;97789.81;1198432;75;4830941;-76
2023/09/20 03:05:08;;;;;;;1.85;1.00;;;;;;;14.72;100.00;97789.81;1142174;75;8491245;-77
2023/09/20 03:07:42;;;;;;;2.80;2.00;;;;;;;14.62;100.00;97792.06;1185354;75;3965416;-76
2023/09/20 03:10:21;;;;;;;2.40;2.00;;;;;;;14.64;100.00;97793.06;1222860;75;3056152;-80
2023/09/20 03:12:57;;;;;;;2.25;1.70;;;;;;;14.68;100.00;97793.56;1224684;75;2934829;-76
2023/09/20 03:15:31;;;;;;;1.50;1.30;;;;;;;14.77;100.00;97789.84;1200073;75;3895197;-80
2023/09/20 03:18:09;;;;;;;1.70;1.40;;;;;;;14.58;100.00;97797.84;1115581;75;9977463;-78
2023/09/20 03:20:43;;;;;;;1.30;1.10;;;;;;;14.44;100.00;97798.78;1223680;75;2930591;-75
2023/09/20 03:23:16;;;;;;;1.75;1.30;;;;;;;14.29;100.00;97812.78;1173077;75;7044939;-75
2023/09/20 03:25:52;;;;;;;1.50;1.00;;;;;;;14.33;100.00;97807.75;1211530;75;3848102;-78
2023/09/20 03:28:24;;;;;;;1.05;0.85;;;;;;;14.33;100.00;97794.00;1220274;75;3113172;-77
2023/09/20 03:31:00;;;;;;;1.60;0.70;;;;;;;14.32;100.00;97789.75;1220953;75;3046131;-79
2023/09/20 03:33:33;;;;;;;1.30;0.80;;;;;;;14.36;100.00;97789.50;1184151;75;4835766;-76
2023/09/20 03:36:15;;;;;;;1.10;0.80;;;;;;;14.27;100.00;97785.72;1223751;75;2926511;-81
2023/09/20 03:38:47;;;;;;;0.70;0.70;;;;;;;14.43;100.00;97789.00;1149850;75;8992309;-79
2023/09/20 03:41:24;;;;;;;0.85;0.60;;;;;;;14.26;100.00;97786.22;1212387;75;3911437;-77
2023/09/20 03:43:56;;;;;;;0.60;0.60;;;;;;;14.36;100.00;97783.97;1210361;75;3904460;-79
2023/09/20 03:46:29;;;;;;;0.75;0.60;;;;;;;14.32;100.00;97787.00;1197912;75;4079738;-77
2023/09/20 03:49:02;;;;;;;2.05;0.80;;;;;;;14.20;100.00;97796.47;1223798;75;2943858;-77
2023/09/20 03:51:35;;;;;;;1.20;1.10;;;;;;;14.12;100.00;97798.97;1207457;75;4027872;-77
2023/09/20 03:54:08;;;;;;;1.10;0.80;;;;;;;14.21;100.00;97790.47;1212522;75;3812917;-78
2023/09/20 03:56:44;;;;;;;1.65;0.90;;;;;;;14.10;100.00;97795.22;1142466;75;9688183;-78
2023/09/20 03:59:17;;;;;;;1.10;1.00;;;;;;;14.05;100.00;97802.94;1211322;75;3834501;-78
2023/09/20 04:01:50;;;;;;;2.50;0.95;;;;;;;13.85;100.00;97803.88;1211109;75;3850153;-76
2023/09/20 04:04:23;;;;;;;1.20;0.80;;;;;;;14.01;100.00;97801.69;1210558;75;4028106;-76
2023/09/20 04:06:55;;;;;;;1.10;0.90;;;;;;;14.05;100.00;97799.44;1223019;75;2950623;-79
2023/09/20 04:09:28;;;;;;;0.85;0.65;;;;;;;14.07;100.00;97780.44;1194740;75;4030301;-75
2023/09/20 04:12:04;;;;;;;0.70;0.70;;;;;;;14.06;100.00;97787.91;1219681;75;3064723;-75
2023/09/20 04:14:36;;;;;;;0.75;0.50;;;;;;;13.99;100.00;97782.91;1208066;75;4002290;-75
2023/09/20 04:17:09;;;;;;;0.70;0.70;;;;;;;13.85;100.00;97795.63;1209183;75;4081815;-77
2023/09/20 04:19:42;;;;;;;0.75;0.60;;;;;;;14.02;100.00;97784.69;1225170;75;2923034;-77
2023/09/20 04:22:15;;;;;;;0.70;0.70;;;;;;;14.04;100.00;97787.66;1199370;75;4896065;-76
2023/09/20 04:24:47;;;;;;;0.75;0.70;;;;;;;14.02;100.00;97792.94;1124450;75;8106840;-76
2023/09/20 04:27:23;;;;;;;2.40;1.70;;;;;;;13.97;100.00;97788.13;1222060;75;3078229;-76
2023/09/20 04:29:57;;;;;;;3.60;2.70;;;;;;;14.02;100.00;97790.19;1225261;75;2940757;-78
2023/09/20 04:32:30;;;;;;;2.50;2.00;;;;;;;13.99;100.00;97787.66;1220603;75;3043696;-75
2023/09/20 04:35:02;;;;;;;3.20;2.40;;;;;;;14.00;100.00;97789.91;1137641;75;7970971;-79
2023/09/20 04:37:35;;;;;;;4.05;3.30;;;;;;;14.01;100.00;97790.66;1151237;75;8944043;-78
2023/09/20 04:40:10;;;;;;;3.95;2.95;;;;;;;13.99;100.00;97790.41;1198706;75;4982617;-78
2023/09/20 04:42:45;;;;;;;3.05;1.95;;;;;;;13.83;100.00;97794.63;1185318;75;5981729;-79
2023/09/20 04:45:19;;;;;;;2.50;1.80;;;;;;;13.95;100.00;97801.66;1208389;75;3941978;-81
2023/09/20 04:47:52;;;;;;;2.50;1.70;;;;;;;13.92;100.00;97794.38;1220983;75;3017389;-80
2023/09/20 04:50:25;;;;;;;3.35;2.70;;;;;;;13.90;100.00;97804.38;1197769;75;5087549;-77
2023/09/20 04:52:57;;;;;;;4.35;3.00;;;;;;;13.86;100.00;97801.88;1223144;75;2963981;-80
2023/09/20 04:55:33;;;;;;;7.90;6.50;;;;;;;13.89;100.00;97800.13;1211879;75;3856439;-77
2023/09/20 04:58:09;;;;;;;9.70;7.25;;;;;;;13.89;100.00;97789.88;1079852;75;9016411;-78
2023/09/20 05:00:41;;;;;;;6.60;5.30;;;;;;;13.98;100.00;97797.91;1186289;75;4925052;-81
2023/09/20 05:03:15;;;;;;;5.60;4.70;;;;;;;13.96;100.00;97794.91;1150582;75;8968088;-79
2023/09/20 05:05:50;;;;;;;5.30;4.40;;;;;;;13.97;100.00;97781.88;1221623;75;2981129;-78
2023/09/20 05:08:22;;;;;;;4.60;3.70;;;;;;;13.95;100.00;97793.41;1221147;75;3013212;-81
2023/09/20 05:10:55;;;;;;;2.95;2.25;;;;;;;13.81;100.00;97797.09;1198471;75;3961368;-79
2023/09/20 05:13:31;;;;;;;3.80;2.40;;;;;;;13.74;100.00;97794.81;1055967;75;16638124;-78
2023/09/20 05:16:03;;;;;;;1.75;1.55;;;;;;;13.72;100.00;97798.06;1220863;75;3005065;-79
2023/09/20 05:18:36;;;;;;;1.20;1.10;;;;;;;13.96;100.00;97794.91;1198124;75;5031424;-77
2023/09/20 05:21:09;;;;;;;1.10;1.00;;;;;;;13.88;100.00;97798.63;1225651;75;2928377;-82
2023/09/20 05:23:43;;;;;;;1.35;1.10;;;;;;;14.02;100.00;97792.16;1223722;75;2936933;-81
2023/09/20 05:26:15;;;;;;;0.90;0.80;;;;;;;14.06;100.00;97796.19;1196115;75;4035471;-81
2023/09/20 05:28:51;;;;;;;0.80;0.80;;;;;;;13.98;100.00;97797.16;1210070;75;3867655;-78
2023/09/20 05:31:26;;;;;;;1.05;0.60;;;;;;;14.04;100.00;97808.94;1211034;83;3976233;-76
2023/09/20 05:33:59;;;;;;;1.65;0.80;;;;;;;14.09;100.00;97804.69;1225800;75;2926981;-77
2023/09/20 05:36:32;;;;;;;1.15;0.95;;;;;;;14.10;100.00;97797.97;1153952;75;8852321;-78
2023/09/20 05:39:06;;;;;;;1.50;1.35;;;;;;;13.98;100.00;97797.91;1136549;75;9918286;-77
2023/09/20 05:41:39;;;;;;;1.90;1.30;;;;;;;13.92;100.00;97799.88;1221327;67;3109188;-78
2023/09/20 05:44:15;;;;;;;1.95;1.40;;;;;;;14.01;100.00;97807.94;1222456;75;3024621;-80
2023/09/20 05:46:48;;;;;;;2.35;1.40;;;;;;;14.14;100.00;97810.25;1220108;75;3063172;-78
2023/09/20 05:49:22;;;;;;;1.70;1.50;;;;;;;14.08;100.00;97806.72;1197654;75;4903246;-77
2023/09/20 05:51:56;;;;;;;2.70;1.85;;;;;;;14.03;100.00;97821.94;1223376;75;2944879;-77
2023/09/20 05:54:29;;;;;;;3.05;1.75;;;;;;;14.14;100.00;97818.50;1143781;75;9628538;-75
2023/09/20 05:57:03;;;;;;;5.15;2.75;;;;;;;14.18;100.00;97819.00;1222166;75;3039523;-80
2023/09/20 05:59:38;;;;;;;;;;;;;;;14.02;100.00;97825.19;1135624;75;10138112;-76
2023/09/20 06:02:17;;;;;;;4.40;3.25;;;;;;;14.14;100.00;97837.00;1173608;75;8985601;-74
2023/09/20 06:04:50;;;;;;;5.05;3.40;;;;;;;14.14;100.00;97828.75;1222797;75;2926912;-79
2023/09/20 06:07:23;;;;;;;4.05;3.00;;;;;;;14.19;100.00;97833.50;1194865;75;5063148;-80
2023/09/20 06:09:56;;;;;;;4.90;3.40;;;;;;;14.30;100.00;97832.81;1222023;75;3053493;-78
2023/09/20 06:12:29;;;;;;;4.90;3.05;;;;;;;14.47;100.00;97828.09;1152381;75;8835730;-76
2023/09/20 06:15:04;;;;;;;3.45;2.55;;;;;;;14.63;100.00;97829.41;1208990;75;3848490;-77
2023/09/20 06:17:37;;;;;;;3.25;2.10;;;;;;;15.04;100.00;97817.88;1224943;75;2931347;-76
2023/09/20 06:20:12;;;;;;;3.00;1.85;;;;;;;15.15;100.00;97819.88;1193323;75;4043243;-78
2023/09/20 06:22:44;;;;;;;2.15;1.85;;;;;;;16.57;100.00;97821.63;1184253;75;4930614;-78
2023/09/20 06:25:19;;;;;;;2.30;1.70;;;;;;;22.25;82.95;97816.50;1211297;75;3899470;-78
2023/09/20 06:27:53;;;;;;;2.88;2.00;;;;;;;23.29;70.03;97805.88;1192289;75;5027121;-75
2023/09/20 06:30:28;;;;;;;2.60;2.00;;;;;;;25.50;62.04;97810.22;1207816;75;3951859;-78
2023/09/20 06:33:02;;;;;;;2.65;1.85;;;;;;;27.57;55.57;97824.31;1224466;75;2934244;-78
2023/09/20 06:35:35;;;;;;;2.45;1.55;;;;;;;27.52;54.24;97828.16;1195703;75;4137226;-76
2023/09/20 06:38:09;;;;;;;3.55;2.10;;;;;;;26.45;57.73;97832.56;1208960;75;4033304;-78
2023/09/20 06:40:42;;;;;;;3.20;1.90;;;;;;;27.98;53.56;97830.16;1218780;75;3083764;-77
2023/09/20 06:43:14;;;;;;;4.25;1.80;;;;;;;28.98;50.64;97835.75;1184585;75;4961258;-78
2023/09/20 06:45:53;;;;;;;3.10;1.70;;;;;;;26.61;54.33;97842.28;1221162;75;3008878;-79
2023/09/20 06:48:27;;;;;;;3.80;2.10;;;;;;;22.97;66.46;97843.44;1172484;75;4964151;-77
2023/09/20 06:51:00;;;;;;;4.70;2.30;;;;;;;22.52;69.75;97841.31;1209190;75;3946526;-79
2023/09/20 06:53:35;;;;;;;3.70;2.40;;;;;;;22.32;74.92;97840.09;1208548;75;4037849;-77
2023/09/20 06:56:08;;;;;;;3.25;1.80;;;;;;;21.28;82.41;97841.88;1207563;75;4008729;-79
2023/09/20 06:58:41;;;;;;;3.80;2.35;;;;;;;21.43;82.92;97830.13;1141197;75;8657920;-77
2023/09/20 07:01:25;;;;;;;4.38;2.60;;;;;;;21.17;84.75;97834.56;1195259;75;9586448;-75
2023/09/20 07:03:57;;;;;;;3.45;2.10;;;;;;;21.35;83.11;97837.66;1180167;75;6238501;-77
2023/09/20 07:06:31;;;;;;;4.20;2.50;;;;;;;20.24;91.36;97832.09;1224226;75;2933170;-80
2023/09/20 07:09:08;;;;;;;3.60;2.20;;;;;;;20.36;92.83;97829.81;1219488;75;3070725;-79
2023/09/20 07:11:41;;;;;;;6.40;3.00;;;;;;;19.98;96.46;97825.28;1149989;75;8861344;-80
2023/09/20 07:14:14;;;;;;;4.35;2.25;;;;;;;20.47;93.45;97823.25;1083720;75;11990652;-75
2023/09/20 07:16:51;;;;;;;2.45;1.85;;;;;;;21.12;88.98;97835.44;1199981;75;4907687;-78
2023/09/20 07:19:26;;;;;;;3.00;2.00;;;;;;;20.83;92.09;97823.50;1221199;75;3137740;-79
2023/09/20 07:21:59;;;;;;;6.55;2.45;;;;;;;20.04;97.39;97830.00;1198322;75;4800547;-79
2023/09/20 07:24:33;;;;;;;4.20;2.60;;;;;;;19.64;100.00;97819.63;1208513;75;3805335;-80
2023/09/20 07:27:06;;;;;;;5.20;2.70;;;;;;;19.87;100.00;97819.22;1212791;75;3826976;-79
2023/09/20 07:29:40;;;;;;;3.70;2.80;;;;;;;20.92;93.17;97819.47;1193459;75;5000519;-79
2023/09/20 07:32:15;;;;;;;9.40;6.35;;;;;;;20.36;98.10;97827.03;1099413;75;12053341;-75
2023/09/20 07:34:57;;;;;;;5.90;4.90;;;;;;;20.30;100.00;97829.97;1222582;75;2980269;-77
2023/09/20 07:37:30;;;;;;;4.90;2.95;;;;;;;20.50;100.00;97842.41;1223220;75;2969002;-77
2023/09/20 07:40:05;;;;;;;4.50;2.50;;;;;;;19.95;100.00;97847.84;1185470;75;4854593;-79
2023/09/20 07:42:38;;;;;;;4.70;2.30;;;;;;;20.11;100.00;97838.44;1136033;75;9005786;-76
2023/09/20 07:45:13;;;;;;;3.35;2.10;;;;;;;19.95;100.00;97845.81;1155193;75;8754521;-77
2023/09/20 07:47:50;;;;;;;5.20;2.70;;;;;;;20.33;98.76;97848.34;1113661;75;14053913;-76
2023/09/20 07:50:25;;;;;;;;;;;;;;;20.50;100.00;97833.31;1184609;75;5926943;-77
2023/09/20 07:52:57;;;;;;;4.45;2.35;;;;;;;20.74;99.87;97833.03;1220464;75;3005247;-78
2023/09/20 07:55:30;;;;;;;2.55;1.85;;;;;;;21.10;98.05;97834.50;1209548;75;3985107;-77
2023/09/20 07:58:03;;;;;;;5.15;2.35;;;;;;;20.82;95.45;97830.34;1221447;75;3072083;-78
2023/09/20 08:00:36;;;;;;;3.40;2.00;;;;;;;20.87;95.88;97829.44;1223338;75;2920899;-77
2023/09/20 08:03:12;;;;;;;4.40;1.90;;;;;;;21.62;92.50;97819.50;1195644;75;4037178;-76
2023/09/20 08:05:45;;;;;;;7.20;2.10;;;;;;;21.30;90.55;97825.34;1183180;75;6012294;-75
2023/09/20 08:08:17;;;;;;;3.75;2.10;;;;;;;21.38;90.03;97823.41;1210609;75;3817832;-79
2023/09/20 08:10:50;;;;;;;4.20;2.35;;;;;;;21.49;88.19;97830.72;1153200;75;8709171;-77
2023/09/20 08:13:23;;;;;;;4.40;1.80;;;;;;;21.28;89.34;97831.47;1199480;75;4955450;-79
2023/09/20 08:15:56;;;;;;;5.10;2.10;;;;;;;21.36;88.80;97825.97;1205111;75;4116742;-77
2023/09/20 08:21:17;;;;;;;2.90;1.70;;;;;;;22.53;81.79;97804.47;1222790;75;2930562;-77
2023/09/20 09:00:19;;;;;;;2.35;1.50;;;;;;;24.92;67.51;97778.75;1222536;75;2990019;-78
2023/09/20 09:02:57;;;;;;;3.25;1.95;;;;;;;25.01;69.82;97772.50;1126144;75;10846599;-79
2023/09/20 09:05:32;;;;;;;2.50;1.40;;;;;;;24.80;69.66;97781.28;1195306;75;4109072;-79
2023/09/20 09:08:10;;;;;;;4.80;2.05;;;;;;;23.97;72.65;97784.69;1220108;75;3028479;-80
2023/09/20 09:10:42;;;;;;;4.00;1.40;;;;;;;25.65;66.60;97779.22;1218627;75;3095416;-77
2023/09/20 09:13:16;;;;;;;2.10;1.15;;;;;;;24.97;70.85;97781.34;1221073;75;2939400;-78
2023/09/20 09:15:50;;;;;;;4.50;2.45;;;;;;;24.15;74.37;97777.16;1225324;75;2849715;-78
2023/09/20 09:18:24;;;;;;;2.55;1.40;;;;;;;24.33;74.76;97780.03;1197827;75;4865406;-79
2023/09/20 09:20:57;;;;;;;2.55;1.75;;;;;;;23.50;75.85;97771.38;1205961;75;3821840;-81
2023/09/20 09:23:44;;;;;;;2.60;1.40;;;;;;;24.20;74.12;97775.47;1198420;75;3925514;-78
2023/09/20 09:26:18;;;;;;;2.60;1.20;;;;;;;25.09;70.24;97764.81;1223293;75;2937673;-79
2023/09/20 09:28:51;;;;;;;2.05;1.20;;;;;;;24.35;71.58;97764.16;1224020;75;2922020;-79
2023/09/20 09:31:23;;;;;;;2.75;1.65;;;;;;;24.32;71.74;97762.53;1139382;75;8709853;-80
2023/09/20 09:33:56;;;;;;;2.55;1.10;;;;;;;24.28;72.19;97762.16;1219215;75;3080787;-78
2023/09/20 09:36:29;;;;;;;2.05;1.40;;;;;;;24.34;72.61;97753.53;1136207;75;8957030;-79
2023/09/20 09:39:15;;;;;;;2.20;1.30;;;;;;;25.33;68.00;97737.31;1223888;75;2963162;-80
2023/09/20 09:41:49;;;;;;;7.65;5.05;;;;;;;24.66;70.34;97725.56;1184422;75;4949869;-79
2023/09/20 09:44:25;;;;;;;3.10;1.80;;;;;;;24.49;70.38;97719.16;1224951;75;2925187;-80
2023/09/20 09:46:59;;;;;;;3.50;1.50;;;;;;;25.13;65.63;97725.91;1130071;75;9486133;-81
2023/09/20 09:49:32;;;;;;;2.25;1.25;;;;;;;25.24;65.93;97728.25;1220518;75;3037774;-80
2023/09/20 09:52:05;;;;;;;2.70;1.40;;;;;;;25.00;70.61;97729.75;1210193;75;3811004;-79
2023/09/20 09:54:41;;;;;;;2.85;1.40;;;;;;;24.66;68.51;97727.63;1223558;75;2935633;-79
2023/09/20 09:57:14;;;;;;;2.45;1.35;;;;;;;25.60;65.35;97717.81;1186550;75;4946757;-80
2023/09/20 09:59:47;;;;;;;2.85;1.20;;;;;;;25.57;66.35;97713.34;1220958;75;3084724;-79
2023/09/20 10:02:21;;;;;;;3.20;1.10;;;;;;;24.75;66.64;97718.59;1211158;75;3947764;-78
2023/09/20 10:04:58;;;;;;;2.15;1.00;;;;;;;25.89;60.53;97718.78;1139229;83;8989992;-80
2023/09/20 10:07:35;;;;;;;1.55;1.00;;;;;;;26.20;61.63;97721.19;1209654;75;3815793;-79
2023/09/20 10:10:16;;;;;;;1.70;0.90;;;;;;;26.06;59.11;97728.47;1225158;75;2949392;-77
2023/09/20 10:12:49;;;;;;;1.10;0.90;;;;;;;26.18;60.13;97728.69;1182945;75;4808487;-79
2023/09/20 10:15:24;;;;;;;2.50;1.15;;;;;;;25.90;59.29;97719.50;1197843;75;4065578;-78
2023/09/20 10:17:59;;;;;;;1.65;1.00;;;;;;;26.39;59.87;97720.53;1138278;75;9834857;-79
2023/09/20 10:21:04;;;;;;;3.65;0.85;;;;;;;26.28;58.60;97721.06;1199609;75;4868649;-80
2023/09/20 10:23:37;;;;;;;1.00;0.80;;;;;;;26.38;58.06;97718.31;1195104;75;5001494;-78
2023/09/20 10:26:19;;;;;;;1.70;1.05;;;;;;;25.59;60.55;97714.25;1217035;75;3098685;-78
2023/09/20 10:28:55;;;;;;;2.55;1.30;;;;;;;26.00;61.49;97711.16;1198789;75;3966714;-80
2023/09/20 10:31:31;;;;;;;4.43;1.55;;;;;;;24.72;63.46;97707.78;1095390;75;12091125;-75
2023/09/20 10:34:04;;;;;;;3.70;1.40;;;;;;;25.03;62.65;97694.25;1186431;75;4872680;-79
2023/09/20 10:36:37;;;;;;;2.10;1.10;;;;;;;26.39;60.26;97691.72;1210266;75;3974041;-79
2023/09/20 10:39:23;;;;;;;2.30;1.30;;;;;;;25.71;60.85;97697.66;1209055;75;3888459;-78
2023/09/20 10:42:09;;;;;;;1.85;1.20;;;;;;;25.92;60.63;97691.63;1223648;75;2923748;-77
2023/09/20 10:44:43;;;;;;;2.35;1.15;;;;;;;25.90;61.39;97695.03;1217222;67;3069863;-80
2023/09/20 10:47:19;;;;;;;2.40;1.10;;;;;;;26.58;60.59;97697.44;1220473;75;3041151;-79
2023/09/20 10:49:56;;;;;;;2.15;1.25;;;;;;;26.95;55.99;97691.78;1222050;75;3009231;-81
2023/09/20 10:52:59;;;;;;;2.90;1.80;;;;;;;26.47;56.28;97695.88;1220964;75;3016635;-80
2023/09/20 10:55:42;;;;;;;2.30;1.30;;;;;;;26.48;59.25;97694.56;1208667;75;3817335;-81
2023/09/20 10:58:18;;;;;;;;;;;;;;;26.40;59.23;97690.41;1181734;75;5870662;-78
2023/09/20 11:00:51;;;;;;;2.70;1.20;;;;;;;26.09;58.29;97680.34;1085656;75;8683924;-79
2023/09/20 11:03:24;;;;;;;2.90;1.10;;;;;;;26.27;59.65;97685.91;1198055;75;3967037;-81
2023/09/20 11:05:56;;;;;;;3.85;1.20;;;;;;;26.33;58.94;97689.91;1199331;75;4897941;-80
2023/09/20 11:08:29;;;;;;;4.10;1.25;;;;;;;25.59;60.13;97682.66;1201195;75;4807807;-80
2023/09/20 11:11:02;;;;;;;2.80;1.20;;;;;;;26.13;61.62;97685.53;1153092;75;8589777;-81
2023/09/20 11:13:38;;;;;;;2.25;1.15;;;;;;;25.72;61.84;97680.25;1219978;75;3029052;-80
2023/09/20 11:16:10;;;;;;;2.45;1.10;;;;;;;26.08;60.58;97673.25;1223898;75;2969568;-80
2023/09/20 11:18:43;;;;;;;2.15;1.30;;;;;;;26.32;59.10;97668.78;1197573;75;4991529;-77
2023/09/20 11:21:16;;;;;;;1.50;1.00;;;;;;;26.49;59.27;97667.25;1223669;75;2936096;-78
2023/09/20 11:23:59;;;;;;;0.90;0.70;;;;;;;26.85;57.28;97663.66;1134332;75;11772692;-75
2023/09/20 11:26:32;;;;;;;2.45;1.15;;;;;;;26.68;56.33;97650.47;1207046;75;4050231;-82
2023/09/20 11:29:10;;;;;;;2.25;0.80;;;;;;;27.02;56.50;97659.25;1210082;75;3922901;-79
2023/09/20 11:31:43;;;;;;;2.25;0.90;;;;;;;26.91;56.00;97647.25;1200211;75;4886284;-78
2023/09/20 11:34:17;;;;;;;1.75;1.10;;;;;;;26.35;57.86;97644.44;1142853;75;8608002;-81
2023/09/20 11:36:53;;;;;;;2.30;1.00;;;;;;;26.72;56.63;97644.41;1199464;75;4880416;-80
2023/09/20 11:39:31;;;;;;;5.00;1.20;;;;;;;26.29;57.08;97638.34;1207668;75;3977235;-77
2023/09/20 11:42:07;;;;;;;2.50;1.50;;;;;;;26.09;58.19;97637.53;1027556;75;11853486;-76
2023/09/20 11:44:42;;;;;;;2.60;1.60;;;;;;;26.67;56.22;97637.75;1221094;75;3022231;-79
2023/09/20 11:47:17;;;;;;;1.70;1.00;;;;;;;26.43;58.00;97636.63;1210196;75;4115136;-78
2023/09/20 11:49:51;;;;;;;1.35;0.85;;;;;;;26.29;56.92;97630.69;1199934;75;4967770;-80
2023/09/20 11:52:24;;;;;;;2.40;1.10;;;;;;;26.69;56.77;97626.66;1216934;75;3114664;-81
2023/09/20 11:55:03;;;;;;;3.50;1.20;;;;;;;27.17;56.51;97622.44;1199013;75;4022128;-78
2023/09/20 11:57:38;;;;;;;1.70;1.00;;;;;;;27.80;56.19;97620.59;1210636;75;3950203;-79
2023/09/20 12:00:19;;;;;;;1.25;0.95;;;;;;;28.23;54.79;97615.13;1223149;75;2980818;-80
2023/09/20 12:02:53;;;;;;;2.55;1.10;;;;;;;27.60;55.79;97608.66;1219402;75;3039787;-80
2023/09/20 12:05:26;;;;;;;2.20;1.20;;;;;;;27.12;57.63;97612.97;1221211;75;3079652;-80
2023/09/20 12:08:00;;;;;;;2.40;1.30;;;;;;;26.96;57.63;97606.16;1206570;75;3922123;-80
2023/09/20 12:10:34;;;;;;;2.10;1.20;;;;;;;26.69;58.32;97609.81;1221378;75;3026881;-82
2023/09/20 12:13:07;;;;;;;2.25;1.15;;;;;;;27.38;58.26;97594.47;1210022;75;4080061;-80
2023/09/20 12:15:47;;;;;;;1.35;0.95;;;;;;;26.74;58.59;97597.56;1221148;75;3069152;-81
2023/09/20 12:18:20;;;;;;;3.25;1.70;;;;;;;27.50;57.44;97591.81;1210525;75;4031674;-79
2023/09/20 12:20:53;;;;;;;2.80;1.50;;;;;;;27.27;57.64;97583.84;1209261;75;3949247;-77
2023/09/20 12:23:25;;;;;;;3.40;1.20;;;;;;;27.62;56.49;97584.22;1223239;75;2926602;-82
2023/09/20 12:25:58;;;;;;;3.00;1.65;;;;;;;28.10;55.73;97582.63;1221556;75;3044313;-82